Airfield :
LOGIN :

Register | Disclaimer

   EN    FR    IT 

 










Legend :    VFR   Marginal VFR   IFR   Intensive IFR   Very Intensive IFR
Visi :
Ceiling :
>= 8 km
>= 3000ft
5 to 8 km
1000 to 3000 ft
1500m to 5 km
500 to 1000 ft
800 to 1500m
200 to 500 ft
< 800m
< 200 ft
Symbols :   Thunderstorms  Fog  Heavy snow  Heavy precipitations  Wind > 20 kt
SIGMETs :     Misc.  Thunderstorms  Icing  Turbulence  Mountain Waves  Volcanic Ashes







- Airport Elevation : 796 ft
- IATA code : SYT
- Download approach charts


LFLN - Saint-Yan

CURRENT METAR :
  • 222200Z AUTO 13003KT CAVOK 12/10 Q1016 NOSIG

EXPIRED METARs :
  • 222130Z AUTO 00000KT CAVOK 14/12 Q1016 NOSIG
  • 222100Z AUTO 13002KT CAVOK 15/13 Q1016 NOSIG
  • 222030Z AUTO 00000KT CAVOK 15/12 Q1016 NOSIG
  • 222000Z AUTO 00000KT CAVOK 16/13 Q1016 NOSIG
  • 221930Z AUTO 00000KT CAVOK 17/13 Q1015 NOSIG

TAF TAF LFLN
Valid from the 22 at 18:00 until the 23 at 03:00 UTC


221700Z 2218/2303 VRB03KT CAVOK
PROB30
TEMPO 2218/2220 FEW065TCU
BECMG 2300/2303 17004KT FEW040TCU
No reported NOTAMs for that airfield.



MET'MAP, your aeronautical weather chart ! - Copyright ORBIFLY December 2007 - Disclaimer

ORBIFLY MET'MAP TEAM :

Programming & Development : Alexandra Zaïnal
Concept & Development : Baudouin d'Aumeries
Co-Development & Prog : Marc-Olivier Méhu
Technical & hardware support : Manuel Goepfert

Contact : metmap@orbifly.com




SOURCES & CREDITS :

   NOAA